Howe, TX

6:21 AM CDT on July 29, 2016 (GMT -0500)
| | Change Station

Elev -9999 ft 0.00 °N, 0.00 °E | Updated

Thunderstorm
Thunderstorm
79 °F
Feels Like 79 °F
N
10
Wind Variable Wind from SSW
Gusts 15 mph

Today
High -- | Low -- °F
--% Chance of Precip.
Yesterday
High -- | Low -- °F
Precip. -- in
Pressure 29.98 in
Visibility 10.0 miles
Clouds Clear
Dew Point 72 °F
Humidity 79%
Rainfall --
Snow Depth Not available.
6:37 AM 8:28 PM
Waning Crescent, 23% visible
METAR KGYI 291115Z AUTO 17005KT 10SM CLR 24/23 A2998 RMK AO2 T02390225
Pressure 29.98 in
Visibility 10.0 miles
Clouds Clear
Dew Point 72 °F
Humidity 79%
Rainfall --
Snow Depth Not available.
6:37 AM 8:28 PM
Waning Crescent, 23% visible
METAR KGYI 291115Z AUTO 17005KT 10SM CLR 24/23 A2998 RMK AO2 T02390225

10-Day Weather Forecast

Almanac

Astronomy

Jul. 29, 2016 Rise Set
Actual Time
Civil Twilight
Nautical Twilight
Astronomical Twilight
Moon
Length of Visible Light
Length of Day
Tomorrow will be .
, % of the Moon is Illuminated

Today's Extremes

State Highs State Lows

Community

WunderPhotos

Upload Photos

1,928,312 photos uploaded!

WunderBlog® & News

Nearby

Air Quality

  Air Quality AQ Index Pollutant
Not available.

Snow Depth

Station Depth Elevation

Earthquake Activity

City Distance Mag. Time & Date
Minimum magnitude displayed is 2.5.

Coastal Water Temperatures

Place Temperature

Stations

Nearby Weather Stations

Station Location Temp. Windchill Dew Point Humidity Wind Precip. Elev Updated Type
                   

Watches & Warnings

There are currently no watches in effect.